sensor_id;sensor_type;location;lat;lon;timestamp;temperature;humidity
15481;DHT22;7842;50.904;6.670;2022-10-15T00:01:12;14.60;99.90
15481;DHT22;7842;50.904;6.670;2022-10-15T00:03:39;14.60;99.90
15481;DHT22;7842;50.904;6.670;2022-10-15T00:06:11;14.60;99.90
15481;DHT22;7842;50.904;6.670;2022-10-15T00:08:38;14.60;99.90
15481;DHT22;7842;50.904;6.670;2022-10-15T00:11:15;14.60;99.90
15481;DHT22;7842;50.904;6.670;2022-10-15T00:13:42;14.60;99.90
15481;DHT22;7842;50.904;6.670;2022-10-15T00:16:11;14.50;99.90
15481;DHT22;7842;50.904;6.670;2022-10-15T00:18:37;14.60;99.90
15481;DHT22;7842;50.904;6.670;2022-10-15T00:21:08;14.60;99.90
15481;DHT22;7842;50.904;6.670;2022-10-15T00:23:34;14.60;99.90
15481;DHT22;7842;50.904;6.670;2022-10-15T00:26:06;14.60;99.90
15481;DHT22;7842;50.904;6.670;2022-10-15T00:28:32;14.60;99.90
15481;DHT22;7842;50.904;6.670;2022-10-15T00:31:06;14.50;99.90
15481;DHT22;7842;50.904;6.670;2022-10-15T00:33:33;14.50;99.90
15481;DHT22;7842;50.904;6.670;2022-10-15T00:36:05;14.50;99.90
15481;DHT22;7842;50.904;6.670;2022-10-15T00:38:31;14.50;99.90
15481;DHT22;7842;50.904;6.670;2022-10-15T00:40:57;14.50;99.90
15481;DHT22;7842;50.904;6.670;2022-10-15T00:46:31;14.50;99.90
15481;DHT22;7842;50.904;6.670;2022-10-15T00:49:13;14.40;99.90
15481;DHT22;7842;50.904;6.670;2022-10-15T00:51:42;14.30;99.90
15481;DHT22;7842;50.904;6.670;2022-10-15T00:54:09;14.30;99.90
15481;DHT22;7842;50.904;6.670;2022-10-15T00:56:36;14.20;99.90
15481;DHT22;7842;50.904;6.670;2022-10-15T00:59:04;14.10;99.90
15481;DHT22;7842;50.904;6.670;2022-10-15T01:01:30;14.10;99.90
15481;DHT22;7842;50.904;6.670;2022-10-15T01:03:55;14.10;99.90
15481;DHT22;7842;50.904;6.670;2022-10-15T01:06:22;14.00;99.90
15481;DHT22;7842;50.904;6.670;2022-10-15T01:08:49;14.00;99.90
15481;DHT22;7842;50.904;6.670;2022-10-15T01:11:39;14.00;99.90
15481;DHT22;7842;50.904;6.670;2022-10-15T01:17:26;13.90;99.90
15481;DHT22;7842;50.904;6.670;2022-10-15T01:34:19;13.60;99.90
15481;DHT22;7842;50.904;6.670;2022-10-15T01:36:55;13.60;99.90
15481;DHT22;7842;50.904;6.670;2022-10-15T01:39:50;13.60;99.90
15481;DHT22;7842;50.904;6.670;2022-10-15T01:42:24;13.60;99.90
15481;DHT22;7842;50.904;6.670;2022-10-15T01:44:56;13.60;99.90
15481;DHT22;7842;50.904;6.670;2022-10-15T01:47:29;13.60;99.90
15481;DHT22;7842;50.904;6.670;2022-10-15T01:49:55;13.60;99.90
15481;DHT22;7842;50.904;6.670;2022-10-15T01:52:26;13.60;99.90
15481;DHT22;7842;50.904;6.670;2022-10-15T01:54:54;13.70;99.90
15481;DHT22;7842;50.904;6.670;2022-10-15T01:57:22;13.60;99.90
15481;DHT22;7842;50.904;6.670;2022-10-15T01:59:49;13.60;99.90
15481;DHT22;7842;50.904;6.670;2022-10-15T02:02:15;13.60;99.90
15481;DHT22;7842;50.904;6.670;2022-10-15T02:04:41;13.60;99.90
15481;DHT22;7842;50.904;6.670;2022-10-15T02:07:20;13.50;99.90
15481;DHT22;7842;50.904;6.670;2022-10-15T02:13:03;13.60;99.90
15481;DHT22;7842;50.904;6.670;2022-10-15T02:18:29;13.70;99.90
15481;DHT22;7842;50.904;6.670;2022-10-15T02:21:16;13.60;99.90
15481;DHT22;7842;50.904;6.670;2022-10-15T02:24:05;13.60;99.90
15481;DHT22;7842;50.904;6.670;2022-10-15T02:26:33;13.60;99.90
15481;DHT22;7842;50.904;6.670;2022-10-15T02:29:01;13.60;99.90
15481;DHT22;7842;50.904;6.670;2022-10-15T02:31:29;13.60;99.90
15481;DHT22;7842;50.904;6.670;2022-10-15T02:33:59;13.60;99.90
15481;DHT22;7842;50.904;6.670;2022-10-15T02:36:26;13.60;99.90
15481;DHT22;7842;50.904;6.670;2022-10-15T02:38:54;13.60;99.90
15481;DHT22;7842;50.904;6.670;2022-10-15T02:41:21;13.60;99.90
15481;DHT22;7842;50.904;6.670;2022-10-15T02:43:47;13.70;99.90
15481;DHT22;7842;50.904;6.670;2022-10-15T02:46:14;13.70;99.90
15481;DHT22;7842;50.904;6.670;2022-10-15T02:48:42;13.70;99.90
15481;DHT22;7842;50.904;6.670;2022-10-15T02:51:07;13.70;99.90
15481;DHT22;7842;50.904;6.670;2022-10-15T02:53:33;13.70;99.90
15481;DHT22;7842;50.904;6.670;2022-10-15T02:55:58;13.80;99.90
15481;DHT22;7842;50.904;6.670;2022-10-15T02:58:24;13.60;99.90
15481;DHT22;7842;50.904;6.670;2022-10-15T03:00:50;13.80;99.90
15481;DHT22;7842;50.904;6.670;2022-10-15T03:03:16;13.80;99.90
15481;DHT22;7842;50.904;6.670;2022-10-15T03:05:42;13.80;99.90
15481;DHT22;7842;50.904;6.670;2022-10-15T03:08:07;13.80;99.90
15481;DHT22;7842;50.904;6.670;2022-10-15T03:10:33;13.90;99.90
15481;DHT22;7842;50.904;6.670;2022-10-15T03:13:05;13.90;99.90
15481;DHT22;7842;50.904;6.670;2022-10-15T03:15:31;13.90;99.90
15481;DHT22;7842;50.904;6.670;2022-10-15T03:17:56;13.90;99.90
15481;DHT22;7842;50.904;6.670;2022-10-15T03:20:22;14.00;99.90
15481;DHT22;7842;50.904;6.670;2022-10-15T03:22:47;13.90;99.90
15481;DHT22;7842;50.904;6.670;2022-10-15T03:25:13;14.00;99.90
15481;DHT22;7842;50.904;6.670;2022-10-15T03:27:39;14.00;99.90
15481;DHT22;7842;50.904;6.670;2022-10-15T03:30:05;14.00;99.90
15481;DHT22;7842;50.904;6.670;2022-10-15T03:32:30;14.00;99.90
15481;DHT22;7842;50.904;6.670;2022-10-15T03:34:56;14.00;99.90
15481;DHT22;7842;50.904;6.670;2022-10-15T03:37:22;14.20;99.90
15481;DHT22;7842;50.904;6.670;2022-10-15T03:39:47;14.00;99.90
15481;DHT22;7842;50.904;6.670;2022-10-15T03:42:13;14.00;99.90
15481;DHT22;7842;50.904;6.670;2022-10-15T03:44:39;14.00;99.90
15481;DHT22;7842;50.904;6.670;2022-10-15T03:47:04;14.00;99.90
15481;DHT22;7842;50.904;6.670;2022-10-15T03:49:30;14.00;99.90
15481;DHT22;7842;50.904;6.670;2022-10-15T03:51:56;14.00;99.90
15481;DHT22;7842;50.904;6.670;2022-10-15T03:54:21;14.00;99.90
15481;DHT22;7842;50.904;6.670;2022-10-15T03:56:47;14.00;99.90
15481;DHT22;7842;50.904;6.670;2022-10-15T03:59:12;14.00;99.90
15481;DHT22;7842;50.904;6.670;2022-10-15T04:01:38;14.00;99.90
15481;DHT22;7842;50.904;6.670;2022-10-15T04:04:04;14.00;99.90
15481;DHT22;7842;50.904;6.670;2022-10-15T04:06:29;14.00;99.90
15481;DHT22;7842;50.904;6.670;2022-10-15T04:08:58;13.90;99.90
15481;DHT22;7842;50.904;6.670;2022-10-15T04:11:24;14.00;99.90
15481;DHT22;7842;50.904;6.670;2022-10-15T04:13:49;14.00;99.90
15481;DHT22;7842;50.904;6.670;2022-10-15T04:16:16;13.90;99.90
15481;DHT22;7842;50.904;6.670;2022-10-15T04:18:41;14.00;99.90
15481;DHT22;7842;50.904;6.670;2022-10-15T04:21:08;14.10;99.90
15481;DHT22;7842;50.904;6.670;2022-10-15T04:23:34;14.00;99.90
15481;DHT22;7842;50.904;6.670;2022-10-15T04:26:00;13.90;99.90
15481;DHT22;7842;50.904;6.670;2022-10-15T04:28:27;13.80;99.90
15481;DHT22;7842;50.904;6.670;2022-10-15T04:30:59;13.80;99.90
15481;DHT22;7842;50.904;6.670;2022-10-15T04:33:25;13.80;99.90
15481;DHT22;7842;50.904;6.670;2022-10-15T04:36:02;13.70;99.90
15481;DHT22;7842;50.904;6.670;2022-10-15T04:38:28;13.80;99.90
15481;DHT22;7842;50.904;6.670;2022-10-15T04:41:02;13.70;99.90
15481;DHT22;7842;50.904;6.670;2022-10-15T04:43:28;13.80;99.90
15481;DHT22;7842;50.904;6.670;2022-10-15T04:45:59;13.70;99.90
15481;DHT22;7842;50.904;6.670;2022-10-15T04:48:26;13.70;99.90
15481;DHT22;7842;50.904;6.670;2022-10-15T04:50:52;13.80;99.90
15481;DHT22;7842;50.904;6.670;2022-10-15T04:53:18;13.70;99.90
15481;DHT22;7842;50.904;6.670;2022-10-15T04:55:43;13.70;99.90
15481;DHT22;7842;50.904;6.670;2022-10-15T04:58:09;13.70;99.90
15481;DHT22;7842;50.904;6.670;2022-10-15T05:00:35;13.70;99.90
15481;DHT22;7842;50.904;6.670;2022-10-15T05:03:00;13.70;99.90
15481;DHT22;7842;50.904;6.670;2022-10-15T05:05:26;13.80;99.90
15481;DHT22;7842;50.904;6.670;2022-10-15T05:07:51;13.70;99.90
15481;DHT22;7842;50.904;6.670;2022-10-15T05:10:17;13.80;99.90
15481;DHT22;7842;50.904;6.670;2022-10-15T05:12:42;13.90;99.90
15481;DHT22;7842;50.904;6.670;2022-10-15T05:15:08;13.80;99.90
15481;DHT22;7842;50.904;6.670;2022-10-15T05:17:34;13.80;99.90
15481;DHT22;7842;50.904;6.670;2022-10-15T05:19:59;13.80;99.90
15481;DHT22;7842;50.904;6.670;2022-10-15T05:22:25;13.80;99.90
15481;DHT22;7842;50.904;6.670;2022-10-15T05:24:51;13.70;99.90
15481;DHT22;7842;50.904;6.670;2022-10-15T05:27:16;13.50;99.90
15481;DHT22;7842;50.904;6.670;2022-10-15T05:29:42;13.80;99.90
15481;DHT22;7842;50.904;6.670;2022-10-15T05:32:07;13.60;99.90
15481;DHT22;7842;50.904;6.670;2022-10-15T05:34:33;13.50;99.90
15481;DHT22;7842;50.904;6.670;2022-10-15T05:36:58;13.60;99.90
15481;DHT22;7842;50.904;6.670;2022-10-15T05:39:24;13.50;99.90
15481;DHT22;7842;50.904;6.670;2022-10-15T05:41:49;13.50;99.90
15481;DHT22;7842;50.904;6.670;2022-10-15T05:44:15;13.40;99.90
15481;DHT22;7842;50.904;6.670;2022-10-15T05:46:41;13.40;99.90
15481;DHT22;7842;50.904;6.670;2022-10-15T05:49:06;13.40;99.90
15481;DHT22;7842;50.904;6.670;2022-10-15T05:51:32;13.30;99.90
15481;DHT22;7842;50.904;6.670;2022-10-15T05:53:58;13.40;99.90
15481;DHT22;7842;50.904;6.670;2022-10-15T05:56:24;13.10;99.90
15481;DHT22;7842;50.904;6.670;2022-10-15T05:58:51;13.20;99.90
15481;DHT22;7842;50.904;6.670;2022-10-15T06:01:16;13.20;99.90
15481;DHT22;7842;50.904;6.670;2022-10-15T06:03:42;13.10;99.90
15481;DHT22;7842;50.904;6.670;2022-10-15T06:06:28;13.10;99.90
15481;DHT22;7842;50.904;6.670;2022-10-15T06:08:54;13.10;99.90
15481;DHT22;7842;50.904;6.670;2022-10-15T06:11:20;13.10;99.90
15481;DHT22;7842;50.904;6.670;2022-10-15T06:13:46;13.20;99.90
15481;DHT22;7842;50.904;6.670;2022-10-15T06:16:13;13.10;99.90
15481;DHT22;7842;50.904;6.670;2022-10-15T06:18:39;12.90;99.90
15481;DHT22;7842;50.904;6.670;2022-10-15T06:21:06;13.00;99.90
15481;DHT22;7842;50.904;6.670;2022-10-15T06:23:32;13.00;99.90
15481;DHT22;7842;50.904;6.670;2022-10-15T06:26:06;13.00;99.90
15481;DHT22;7842;50.904;6.670;2022-10-15T06:28:33;13.00;99.90
15481;DHT22;7842;50.904;6.670;2022-10-15T06:30:59;13.00;99.90
15481;DHT22;7842;50.904;6.670;2022-10-15T06:33:26;13.10;99.90
15481;DHT22;7842;50.904;6.670;2022-10-15T06:35:52;13.10;99.90
15481;DHT22;7842;50.904;6.670;2022-10-15T06:38:17;13.10;99.90
15481;DHT22;7842;50.904;6.670;2022-10-15T06:40:43;13.10;99.90
15481;DHT22;7842;50.904;6.670;2022-10-15T06:43:10;13.10;99.90
15481;DHT22;7842;50.904;6.670;2022-10-15T06:45:37;13.10;99.90
15481;DHT22;7842;50.904;6.670;2022-10-15T06:48:04;12.90;99.90
15481;DHT22;7842;50.904;6.670;2022-10-15T06:50:34;13.10;99.90
15481;DHT22;7842;50.904;6.670;2022-10-15T06:53:00;13.10;99.90
15481;DHT22;7842;50.904;6.670;2022-10-15T06:55:27;13.20;99.90
15481;DHT22;7842;50.904;6.670;2022-10-15T06:57:54;13.20;99.90
15481;DHT22;7842;50.904;6.670;2022-10-15T07:00:21;13.20;99.90
15481;DHT22;7842;50.904;6.670;2022-10-15T07:02:46;13.40;99.90
15481;DHT22;7842;50.904;6.670;2022-10-15T07:05:12;13.40;99.90
15481;DHT22;7842;50.904;6.670;2022-10-15T07:07:37;13.30;99.90
15481;DHT22;7842;50.904;6.670;2022-10-15T07:10:04;13.30;99.90
15481;DHT22;7842;50.904;6.670;2022-10-15T07:12:29;13.40;99.90
15481;DHT22;7842;50.904;6.670;2022-10-15T07:14:55;13.40;99.90
15481;DHT22;7842;50.904;6.670;2022-10-15T07:17:20;13.40;99.90
15481;DHT22;7842;50.904;6.670;2022-10-15T07:19:46;13.40;99.90
15481;DHT22;7842;50.904;6.670;2022-10-15T07:22:12;13.60;99.90
15481;DHT22;7842;50.904;6.670;2022-10-15T07:24:37;13.60;99.90
15481;DHT22;7842;50.904;6.670;2022-10-15T07:27:04;13.40;99.90
15481;DHT22;7842;50.904;6.670;2022-10-15T07:29:30;13.60;99.90
15481;DHT22;7842;50.904;6.670;2022-10-15T07:31:56;13.60;99.90
15481;DHT22;7842;50.904;6.670;2022-10-15T07:34:21;13.70;99.90
15481;DHT22;7842;50.904;6.670;2022-10-15T07:36:47;13.80;99.90
15481;DHT22;7842;50.904;6.670;2022-10-15T07:39:13;14.00;99.90
15481;DHT22;7842;50.904;6.670;2022-10-15T07:41:38;13.90;99.90
15481;DHT22;7842;50.904;6.670;2022-10-15T07:44:04;13.90;99.90
15481;DHT22;7842;50.904;6.670;2022-10-15T07:46:30;13.90;99.90
15481;DHT22;7842;50.904;6.670;2022-10-15T07:48:56;14.00;99.90
15481;DHT22;7842;50.904;6.670;2022-10-15T07:51:21;14.00;99.90
15481;DHT22;7842;50.904;6.670;2022-10-15T07:53:47;14.10;99.90
15481;DHT22;7842;50.904;6.670;2022-10-15T07:56:14;14.10;99.90
15481;DHT22;7842;50.904;6.670;2022-10-15T07:58:40;14.10;99.90
15481;DHT22;7842;50.904;6.670;2022-10-15T08:01:08;14.10;99.90
15481;DHT22;7842;50.904;6.670;2022-10-15T08:03:35;14.20;99.90
15481;DHT22;7842;50.904;6.670;2022-10-15T08:06:02;14.20;99.90
15481;DHT22;7842;50.904;6.670;2022-10-15T08:08:28;14.20;99.90
15481;DHT22;7842;50.904;6.670;2022-10-15T08:10:54;14.30;99.90
15481;DHT22;7842;50.904;6.670;2022-10-15T08:13:20;14.40;99.90
15481;DHT22;7842;50.904;6.670;2022-10-15T08:15:46;14.30;99.90
15481;DHT22;7842;50.904;6.670;2022-10-15T08:18:11;14.50;99.90
15481;DHT22;7842;50.904;6.670;2022-10-15T08:20:37;14.60;99.90
15481;DHT22;7842;50.904;6.670;2022-10-15T08:23:03;14.60;99.90
15481;DHT22;7842;50.904;6.670;2022-10-15T08:25:29;14.70;99.90
15481;DHT22;7842;50.904;6.670;2022-10-15T08:27:57;14.70;99.90
15481;DHT22;7842;50.904;6.670;2022-10-15T08:30:23;14.80;99.90
15481;DHT22;7842;50.904;6.670;2022-10-15T08:32:49;14.80;99.90
15481;DHT22;7842;50.904;6.670;2022-10-15T08:35:15;14.80;99.90
15481;DHT22;7842;50.904;6.670;2022-10-15T08:37:40;14.90;99.90
15481;DHT22;7842;50.904;6.670;2022-10-15T08:40:06;15.10;99.90
15481;DHT22;7842;50.904;6.670;2022-10-15T08:42:41;15.00;99.90
15481;DHT22;7842;50.904;6.670;2022-10-15T08:45:31;15.10;99.90
15481;DHT22;7842;50.904;6.670;2022-10-15T08:48:11;15.20;99.90
15481;DHT22;7842;50.904;6.670;2022-10-15T08:50:56;15.30;99.90
15481;DHT22;7842;50.904;6.670;2022-10-15T08:53:24;15.40;99.90
15481;DHT22;7842;50.904;6.670;2022-10-15T08:55:54;15.50;99.90
15481;DHT22;7842;50.904;6.670;2022-10-15T09:01:14;15.60;99.90
15481;DHT22;7842;50.904;6.670;2022-10-15T09:06:33;15.60;99.90
15481;DHT22;7842;50.904;6.670;2022-10-15T09:14:59;15.90;99.90
15481;DHT22;7842;50.904;6.670;2022-10-15T09:17:28;16.10;99.90
15481;DHT22;7842;50.904;6.670;2022-10-15T09:19:56;16.10;99.90
15481;DHT22;7842;50.904;6.670;2022-10-15T09:22:28;16.10;99.90
15481;DHT22;7842;50.904;6.670;2022-10-15T09:24:55;16.10;99.90
15481;DHT22;7842;50.904;6.670;2022-10-15T09:33:24;16.50;99.90
15481;DHT22;7842;50.904;6.670;2022-10-15T09:43:51;16.70;99.90
15481;DHT22;7842;50.904;6.670;2022-10-15T09:46:17;16.80;99.90
15481;DHT22;7842;50.904;6.670;2022-10-15T09:49:06;17.00;99.90
15481;DHT22;7842;50.904;6.670;2022-10-15T09:51:42;16.90;99.90
15481;DHT22;7842;50.904;6.670;2022-10-15T09:54:35;16.90;99.90
15481;DHT22;7842;50.904;6.670;2022-10-15T09:57:08;16.90;99.90
15481;DHT22;7842;50.904;6.670;2022-10-15T09:59:34;16.90;99.90
15481;DHT22;7842;50.904;6.670;2022-10-15T10:02:01;16.80;99.90
15481;DHT22;7842;50.904;6.670;2022-10-15T10:04:33;16.80;99.90
15481;DHT22;7842;50.904;6.670;2022-10-15T10:07:03;16.80;99.90
15481;DHT22;7842;50.904;6.670;2022-10-15T10:09:54;17.00;99.90
15481;DHT22;7842;50.904;6.670;2022-10-15T10:12:24;16.90;99.90
15481;DHT22;7842;50.904;6.670;2022-10-15T10:14:55;17.10;99.90
15481;DHT22;7842;50.904;6.670;2022-10-15T10:17:26;17.20;99.90
15481;DHT22;7842;50.904;6.670;2022-10-15T10:20:12;17.30;99.90
15481;DHT22;7842;50.904;6.670;2022-10-15T10:22:51;17.30;99.90
15481;DHT22;7842;50.904;6.670;2022-10-15T10:25:30;17.50;99.90
15481;DHT22;7842;50.904;6.670;2022-10-15T10:30:58;17.40;99.90
15481;DHT22;7842;50.904;6.670;2022-10-15T10:33:36;17.50;99.90
15481;DHT22;7842;50.904;6.670;2022-10-15T10:36:23;17.50;99.90
15481;DHT22;7842;50.904;6.670;2022-10-15T10:41:49;17.60;99.90
15481;DHT22;7842;50.904;6.670;2022-10-15T10:44:21;17.60;99.90
15481;DHT22;7842;50.904;6.670;2022-10-15T10:47:10;17.80;99.90
15481;DHT22;7842;50.904;6.670;2022-10-15T10:52:04;18.00;99.90
15481;DHT22;7842;50.904;6.670;2022-10-15T10:54:31;18.30;99.90
15481;DHT22;7842;50.904;6.670;2022-10-15T10:56:59;18.20;99.90
15481;DHT22;7842;50.904;6.670;2022-10-15T10:59:29;18.30;99.90
15481;DHT22;7842;50.904;6.670;2022-10-15T11:01:55;18.40;99.90
15481;DHT22;7842;50.904;6.670;2022-10-15T11:23:31;19.10;99.90
15481;DHT22;7842;50.904;6.670;2022-10-15T11:26:20;19.20;99.90
15481;DHT22;7842;50.904;6.670;2022-10-15T11:34:44;19.10;99.90
15481;DHT22;7842;50.904;6.670;2022-10-15T11:37:30;19.10;99.90
15481;DHT22;7842;50.904;6.670;2022-10-15T11:40:31;19.40;99.90
15481;DHT22;7842;50.904;6.670;2022-10-15T11:43:02;19.30;99.90
15481;DHT22;7842;50.904;6.670;2022-10-15T11:45:34;19.20;99.90
15481;DHT22;7842;50.904;6.670;2022-10-15T11:51:14;19.50;99.90
15481;DHT22;7842;50.904;6.670;2022-10-15T11:53:50;19.50;99.90
15481;DHT22;7842;50.904;6.670;2022-10-15T11:56:27;19.60;99.90
15481;DHT22;7842;50.904;6.670;2022-10-15T11:59:44;19.60;99.90
15481;DHT22;7842;50.904;6.670;2022-10-15T12:01:53;19.60;99.90
15481;DHT22;7842;50.904;6.670;2022-10-15T12:04:26;19.70;99.90
15481;DHT22;7842;50.904;6.670;2022-10-15T12:06:55;19.60;99.90
15481;DHT22;7842;50.904;6.670;2022-10-15T12:09:29;19.60;99.90
15481;DHT22;7842;50.904;6.670;2022-10-15T12:14:40;19.60;99.90
15481;DHT22;7842;50.904;6.670;2022-10-15T12:17:29;19.60;99.90
15481;DHT22;7842;50.904;6.670;2022-10-15T12:20:13;19.60;99.90
15481;DHT22;7842;50.904;6.670;2022-10-15T12:22:43;19.60;99.90
15481;DHT22;7842;50.904;6.670;2022-10-15T12:28:00;19.50;99.90
15481;DHT22;7842;50.904;6.670;2022-10-15T12:30:32;19.50;99.90
15481;DHT22;7842;50.904;6.670;2022-10-15T12:33:00;19.50;99.90
15481;DHT22;7842;50.904;6.670;2022-10-15T12:35:34;19.50;99.90
15481;DHT22;7842;50.904;6.670;2022-10-15T12:38:19;19.50;99.90
15481;DHT22;7842;50.904;6.670;2022-10-15T12:40:46;19.50;99.90
15481;DHT22;7842;50.904;6.670;2022-10-15T12:43:19;19.60;99.90
15481;DHT22;7842;50.904;6.670;2022-10-15T12:45:57;19.40;99.90
15481;DHT22;7842;50.904;6.670;2022-10-15T12:48:30;19.50;99.90
15481;DHT22;7842;50.904;6.670;2022-10-15T12:53:47;19.90;99.90
15481;DHT22;7842;50.904;6.670;2022-10-15T12:58:53;20.00;99.90
15481;DHT22;7842;50.904;6.670;2022-10-15T13:11:29;20.00;99.90
15481;DHT22;7842;50.904;6.670;2022-10-15T13:16:34;20.10;99.90
15481;DHT22;7842;50.904;6.670;2022-10-15T13:19:02;20.10;99.90
15481;DHT22;7842;50.904;6.670;2022-10-15T13:44:32;20.40;99.90
15481;DHT22;7842;50.904;6.670;2022-10-15T13:46:58;20.40;99.90
15481;DHT22;7842;50.904;6.670;2022-10-15T13:49:24;20.50;99.90
15481;DHT22;7842;50.904;6.670;2022-10-15T13:51:51;20.50;99.90
15481;DHT22;7842;50.904;6.670;2022-10-15T13:54:29;20.50;99.90
15481;DHT22;7842;50.904;6.670;2022-10-15T13:56:58;20.50;99.90
15481;DHT22;7842;50.904;6.670;2022-10-15T13:59:26;20.50;99.90
15481;DHT22;7842;50.904;6.670;2022-10-15T14:01:57;20.50;99.90
15481;DHT22;7842;50.904;6.670;2022-10-15T14:04:30;20.40;99.90
15481;DHT22;7842;50.904;6.670;2022-10-15T14:09:45;20.40;99.90
15481;DHT22;7842;50.904;6.670;2022-10-15T14:12:11;20.30;99.90
15481;DHT22;7842;50.904;6.670;2022-10-15T14:14:43;20.30;99.90
15481;DHT22;7842;50.904;6.670;2022-10-15T14:17:22;20.50;99.90
15481;DHT22;7842;50.904;6.670;2022-10-15T14:19:51;20.40;99.90
15481;DHT22;7842;50.904;6.670;2022-10-15T14:22:20;20.40;99.90
15481;DHT22;7842;50.904;6.670;2022-10-15T14:24:50;20.40;99.90
15481;DHT22;7842;50.904;6.670;2022-10-15T14:27:22;20.30;99.90
15481;DHT22;7842;50.904;6.670;2022-10-15T14:29:50;20.40;99.90
15481;DHT22;7842;50.904;6.670;2022-10-15T14:32:20;20.20;99.90
15481;DHT22;7842;50.904;6.670;2022-10-15T14:34:46;20.40;99.90
15481;DHT22;7842;50.904;6.670;2022-10-15T14:37:29;20.30;99.90
15481;DHT22;7842;50.904;6.670;2022-10-15T14:40:22;20.20;99.90
15481;DHT22;7842;50.904;6.670;2022-10-15T14:42:48;20.30;99.90
15481;DHT22;7842;50.904;6.670;2022-10-15T14:45:27;20.10;99.90
15481;DHT22;7842;50.904;6.670;2022-10-15T14:48:06;20.20;99.90
15481;DHT22;7842;50.904;6.670;2022-10-15T14:50:35;20.10;99.90
15481;DHT22;7842;50.904;6.670;2022-10-15T14:53:06;20.10;99.90
15481;DHT22;7842;50.904;6.670;2022-10-15T14:55:36;20.10;99.90
15481;DHT22;7842;50.904;6.670;2022-10-15T14:58:10;19.30;99.90
15481;DHT22;7842;50.904;6.670;2022-10-15T15:00:44;18.50;99.90
15481;DHT22;7842;50.904;6.670;2022-10-15T15:03:18;17.80;99.90
15481;DHT22;7842;50.904;6.670;2022-10-15T15:05:50;17.50;99.90
15481;DHT22;7842;50.904;6.670;2022-10-15T15:08:17;17.30;99.90
15481;DHT22;7842;50.904;6.670;2022-10-15T15:10:43;17.10;99.90
15481;DHT22;7842;50.904;6.670;2022-10-15T15:13:30;17.00;99.90
15481;DHT22;7842;50.904;6.670;2022-10-15T15:15:57;16.90;99.90
15481;DHT22;7842;50.904;6.670;2022-10-15T15:18:22;17.00;99.90
15481;DHT22;7842;50.904;6.670;2022-10-15T15:20:49;16.80;99.90
15481;DHT22;7842;50.904;6.670;2022-10-15T15:23:21;16.90;99.90
15481;DHT22;7842;50.904;6.670;2022-10-15T15:25:48;16.70;99.90
15481;DHT22;7842;50.904;6.670;2022-10-15T15:28:16;16.70;99.90
15481;DHT22;7842;50.904;6.670;2022-10-15T15:30:43;16.70;99.90
15481;DHT22;7842;50.904;6.670;2022-10-15T15:33:13;16.70;99.90
15481;DHT22;7842;50.904;6.670;2022-10-15T15:36:01;16.70;99.90
15481;DHT22;7842;50.904;6.670;2022-10-15T15:38:27;16.80;99.90
15481;DHT22;7842;50.904;6.670;2022-10-15T15:41:03;16.80;99.90
15481;DHT22;7842;50.904;6.670;2022-10-15T15:43:35;16.80;99.90
15481;DHT22;7842;50.904;6.670;2022-10-15T15:46:01;16.80;99.90
15481;DHT22;7842;50.904;6.670;2022-10-15T15:48:26;16.80;99.90
15481;DHT22;7842;50.904;6.670;2022-10-15T15:50:52;16.80;99.90
15481;DHT22;7842;50.904;6.670;2022-10-15T15:53:18;16.80;99.90
15481;DHT22;7842;50.904;6.670;2022-10-15T15:55:44;16.70;99.90
15481;DHT22;7842;50.904;6.670;2022-10-15T15:58:09;16.70;99.90
15481;DHT22;7842;50.904;6.670;2022-10-15T16:00:35;16.70;99.90
15481;DHT22;7842;50.904;6.670;2022-10-15T16:03:00;16.80;99.90
15481;DHT22;7842;50.904;6.670;2022-10-15T16:05:26;16.50;99.90
15481;DHT22;7842;50.904;6.670;2022-10-15T16:07:52;16.70;99.90
15481;DHT22;7842;50.904;6.670;2022-10-15T16:10:17;16.70;99.90
15481;DHT22;7842;50.904;6.670;2022-10-15T16:12:43;16.60;99.90
15481;DHT22;7842;50.904;6.670;2022-10-15T16:15:09;16.70;99.90
15481;DHT22;7842;50.904;6.670;2022-10-15T16:17:36;16.60;99.90
15481;DHT22;7842;50.904;6.670;2022-10-15T16:20:02;16.50;99.90
15481;DHT22;7842;50.904;6.670;2022-10-15T16:22:28;16.50;99.90
15481;DHT22;7842;50.904;6.670;2022-10-15T16:24:54;16.50;99.90
15481;DHT22;7842;50.904;6.670;2022-10-15T16:27:20;16.40;99.90
15481;DHT22;7842;50.904;6.670;2022-10-15T16:29:45;16.30;99.90
15481;DHT22;7842;50.904;6.670;2022-10-15T16:32:11;16.30;99.90
15481;DHT22;7842;50.904;6.670;2022-10-15T16:34:36;16.20;99.90
15481;DHT22;7842;50.904;6.670;2022-10-15T16:37:03;16.40;99.90
15481;DHT22;7842;50.904;6.670;2022-10-15T16:39:28;16.30;99.90
15481;DHT22;7842;50.904;6.670;2022-10-15T16:41:54;16.20;99.90
15481;DHT22;7842;50.904;6.670;2022-10-15T16:44:20;16.30;99.90
15481;DHT22;7842;50.904;6.670;2022-10-15T16:46:46;16.10;99.90
15481;DHT22;7842;50.904;6.670;2022-10-15T16:49:11;16.10;99.90
15481;DHT22;7842;50.904;6.670;2022-10-15T16:51:37;16.10;99.90
15481;DHT22;7842;50.904;6.670;2022-10-15T16:54:03;16.10;99.90
15481;DHT22;7842;50.904;6.670;2022-10-15T16:56:29;16.10;99.90
15481;DHT22;7842;50.904;6.670;2022-10-15T16:58:56;16.10;99.90
15481;DHT22;7842;50.904;6.670;2022-10-15T17:01:24;16.00;99.90
15481;DHT22;7842;50.904;6.670;2022-10-15T17:03:50;16.00;99.90
15481;DHT22;7842;50.904;6.670;2022-10-15T17:06:19;16.00;99.90
15481;DHT22;7842;50.904;6.670;2022-10-15T17:08:53;16.20;99.90
15481;DHT22;7842;50.904;6.670;2022-10-15T17:13:47;16.00;99.90
15481;DHT22;7842;50.904;6.670;2022-10-15T17:16:15;15.90;99.90
15481;DHT22;7842;50.904;6.670;2022-10-15T17:18:42;15.90;99.90
15481;DHT22;7842;50.904;6.670;2022-10-15T17:21:10;15.80;99.90
15481;DHT22;7842;50.904;6.670;2022-10-15T17:23:37;15.80;99.90
15481;DHT22;7842;50.904;6.670;2022-10-15T17:26:07;15.70;99.90
15481;DHT22;7842;50.904;6.670;2022-10-15T17:28:34;15.70;99.90
15481;DHT22;7842;50.904;6.670;2022-10-15T17:31:08;15.70;99.90
15481;DHT22;7842;50.904;6.670;2022-10-15T17:33:35;15.70;99.90
15481;DHT22;7842;50.904;6.670;2022-10-15T17:36:06;15.70;99.90
15481;DHT22;7842;50.904;6.670;2022-10-15T17:38:32;15.80;99.90
15481;DHT22;7842;50.904;6.670;2022-10-15T17:40:58;15.90;99.90
15481;DHT22;7842;50.904;6.670;2022-10-15T17:43:24;15.80;99.90
15481;DHT22;7842;50.904;6.670;2022-10-15T17:46:00;15.80;99.90
15481;DHT22;7842;50.904;6.670;2022-10-15T17:48:26;15.70;99.90
15481;DHT22;7842;50.904;6.670;2022-10-15T17:50:52;15.70;99.90
15481;DHT22;7842;50.904;6.670;2022-10-15T17:53:17;15.70;99.90
15481;DHT22;7842;50.904;6.670;2022-10-15T17:55:43;15.70;99.90
15481;DHT22;7842;50.904;6.670;2022-10-15T17:58:08;15.90;99.90
15481;DHT22;7842;50.904;6.670;2022-10-15T18:00:34;15.90;99.90
15481;DHT22;7842;50.904;6.670;2022-10-15T18:03:00;15.60;99.90
15481;DHT22;7842;50.904;6.670;2022-10-15T18:05:25;15.60;99.90
15481;DHT22;7842;50.904;6.670;2022-10-15T18:07:51;15.80;99.90
15481;DHT22;7842;50.904;6.670;2022-10-15T18:10:16;15.60;99.90
15481;DHT22;7842;50.904;6.670;2022-10-15T18:12:42;15.50;99.90
15481;DHT22;7842;50.904;6.670;2022-10-15T18:15:08;15.50;99.90
15481;DHT22;7842;50.904;6.670;2022-10-15T18:17:33;15.40;99.90